createdAt,value
2022-10-17T00:01:17.201Z,5.10
2022-10-17T00:03:45.075Z,4.70
2022-10-17T00:06:15.096Z,4.78
2022-10-17T00:08:44.078Z,4.72
2022-10-17T00:11:16.593Z,5.18
2022-10-17T00:13:44.741Z,4.90
2022-10-17T00:16:13.189Z,4.80
2022-10-17T00:18:41.420Z,5.10
2022-10-17T00:21:17.200Z,5.10
2022-10-17T00:23:45.105Z,5.20
2022-10-17T00:26:14.948Z,5.95
2022-10-17T00:28:42.856Z,5.90
2022-10-17T00:31:11.773Z,6.15
2022-10-17T00:33:39.958Z,6.20
2022-10-17T00:36:10.669Z,5.75
2022-10-17T00:38:38.662Z,7.00
2022-10-17T00:41:07.807Z,5.03
2022-10-17T00:46:29.783Z,6.32
2022-10-17T00:48:58.635Z,5.78
2022-10-17T00:51:32.191Z,5.22
2022-10-17T00:54:00.979Z,5.68
2022-10-17T00:56:28.937Z,5.95
2022-10-17T00:58:57.064Z,5.32
2022-10-17T01:01:25.032Z,5.72
2022-10-17T01:03:54.385Z,5.43
2022-10-17T01:06:22.181Z,6.15
2022-10-17T01:08:50.075Z,6.18
2022-10-17T01:11:26.269Z,5.63
2022-10-17T01:13:58.222Z,5.25
2022-10-17T01:16:33.158Z,5.13
2022-10-17T01:19:10.758Z,4.93
2022-10-17T01:21:44.691Z,4.93
2022-10-17T01:24:35.105Z,5.13
2022-10-17T01:27:27.576Z,4.75
2022-10-17T01:30:31.170Z,5.05
2022-10-17T01:33:05.730Z,4.65
2022-10-17T01:35:39.455Z,5.05
2022-10-17T01:38:11.478Z,4.93
2022-10-17T01:40:44.483Z,4.80
2022-10-17T01:43:15.144Z,4.55
2022-10-17T01:45:46.886Z,4.55
2022-10-17T01:48:17.647Z,4.03
2022-10-17T01:50:50.740Z,4.50
2022-10-17T01:53:22.597Z,4.68
2022-10-17T01:55:55.420Z,4.07
2022-10-17T01:58:28.036Z,4.10
2022-10-17T02:00:56.942Z,4.30
2022-10-17T02:03:27.177Z,4.35
2022-10-17T02:05:55.211Z,4.45
2022-10-17T02:08:27.758Z,4.65
2022-10-17T02:10:59.009Z,3.85
2022-10-17T02:13:36.621Z,4.50
2022-10-17T02:16:14.028Z,3.85
2022-10-17T02:19:03.909Z,3.80
2022-10-17T02:21:37.094Z,4.07
2022-10-17T02:24:09.934Z,4.20
2022-10-17T02:26:43.439Z,4.05
2022-10-17T02:29:14.894Z,4.82
2022-10-17T02:31:48.028Z,4.32
2022-10-17T02:34:20.968Z,3.90
2022-10-17T02:36:52.072Z,4.18
2022-10-17T02:39:21.191Z,4.30
2022-10-17T02:41:49.578Z,4.40
2022-10-17T02:44:18.186Z,3.88
2022-10-17T02:46:56.084Z,4.45
2022-10-17T02:49:29.530Z,3.80
2022-10-17T02:52:03.104Z,4.30
2022-10-17T02:54:35.519Z,4.18
2022-10-17T02:57:09.217Z,4.00
2022-10-17T02:59:38.009Z,4.00
2022-10-17T03:02:06.836Z,4.15
2022-10-17T03:04:36.008Z,3.80
2022-10-17T03:07:03.942Z,4.65
2022-10-17T03:09:31.812Z,4.30
2022-10-17T03:11:59.601Z,3.90
2022-10-17T03:14:27.548Z,4.10
2022-10-17T03:16:55.465Z,4.00
2022-10-17T03:19:23.409Z,3.70
2022-10-17T03:21:53.187Z,3.50
2022-10-17T03:24:21.156Z,3.72
2022-10-17T03:26:49.125Z,3.80
2022-10-17T03:29:16.990Z,4.07
2022-10-17T03:31:44.965Z,3.35
2022-10-17T03:34:12.906Z,3.67
2022-10-17T03:36:40.735Z,3.72
2022-10-17T03:39:10.231Z,3.72
2022-10-17T03:41:38.839Z,3.45
2022-10-17T03:44:06.640Z,3.40
2022-10-17T03:46:34.714Z,4.10
2022-10-17T03:49:02.588Z,3.65
2022-10-17T03:51:31.053Z,3.33
2022-10-17T03:54:03.988Z,3.33
2022-10-17T03:56:33.201Z,3.72
2022-10-17T03:59:05.108Z,3.55
2022-10-17T04:01:36.096Z,3.55
2022-10-17T04:04:04.016Z,3.33
2022-10-17T04:06:34.870Z,3.83
2022-10-17T04:09:03.017Z,3.53
2022-10-17T04:11:39.951Z,3.38
2022-10-17T04:14:08.487Z,3.80
2022-10-17T04:16:38.516Z,4.90
2022-10-17T04:19:13.951Z,3.65
2022-10-17T04:21:45.922Z,3.40
2022-10-17T04:24:15.079Z,3.83
2022-10-17T04:26:47.214Z,3.85
2022-10-17T04:29:16.204Z,3.95
2022-10-17T04:31:45.998Z,3.80
2022-10-17T04:34:21.462Z,4.13
2022-10-17T04:36:49.393Z,3.75
2022-10-17T04:39:17.888Z,3.60
2022-10-17T04:41:48.140Z,3.05
2022-10-17T04:44:16.273Z,3.60
2022-10-17T04:46:50.278Z,3.47
2022-10-17T04:49:18.363Z,3.70
2022-10-17T04:51:49.469Z,3.10
2022-10-17T04:54:20.651Z,3.30
2022-10-17T04:56:54.890Z,3.58
2022-10-17T04:59:22.941Z,3.22
2022-10-17T05:01:58.317Z,3.70
2022-10-17T05:04:27.007Z,3.22
2022-10-17T05:06:54.958Z,3.55
2022-10-17T05:09:43.053Z,3.38
2022-10-17T05:12:13.013Z,3.53
2022-10-17T05:14:44.345Z,3.45
2022-10-17T05:17:12.317Z,3.53
2022-10-17T05:19:40.317Z,3.25
2022-10-17T05:22:09.726Z,3.17
2022-10-17T05:24:37.644Z,3.35
2022-10-17T05:27:05.502Z,3.42
2022-10-17T05:29:35.552Z,3.35
2022-10-17T05:32:10.788Z,3.50
2022-10-17T05:34:39.259Z,3.88
2022-10-17T05:37:07.150Z,3.50
2022-10-17T05:39:35.336Z,3.47
2022-10-17T05:42:05.419Z,3.45
2022-10-17T05:44:36.008Z,3.53
2022-10-17T05:47:04.076Z,3.40
2022-10-17T05:49:43.921Z,3.20
2022-10-17T05:52:15.146Z,3.40
2022-10-17T05:55:07.400Z,3.25
2022-10-17T05:57:35.339Z,3.20
2022-10-17T06:00:11.006Z,3.88
2022-10-17T06:02:50.830Z,3.55
2022-10-17T06:05:21.025Z,3.55
2022-10-17T06:07:50.138Z,3.50
2022-10-17T06:10:18.641Z,3.60
2022-10-17T06:12:46.872Z,3.75
2022-10-17T06:15:17.412Z,3.45
2022-10-17T06:17:49.574Z,3.20
2022-10-17T06:20:17.561Z,3.85
2022-10-17T06:22:45.444Z,3.70
2022-10-17T06:25:19.078Z,3.28
2022-10-17T06:27:47.028Z,3.13
2022-10-17T06:30:19.254Z,3.70
2022-10-17T06:32:47.140Z,3.53
2022-10-17T06:35:15.160Z,3.15
2022-10-17T06:37:43.076Z,3.30
2022-10-17T06:40:12.301Z,3.40
2022-10-17T06:42:41.140Z,3.38
2022-10-17T06:45:25.368Z,3.25
2022-10-17T06:47:58.179Z,3.90
2022-10-17T06:50:45.230Z,3.50
2022-10-17T06:53:24.976Z,3.13
2022-10-17T06:56:11.571Z,3.47
2022-10-17T06:58:49.460Z,3.05
2022-10-17T07:01:28.629Z,3.08
2022-10-17T07:03:59.437Z,3.25
2022-10-17T07:06:27.638Z,2.78
2022-10-17T07:08:57.508Z,3.33
2022-10-17T07:11:25.860Z,3.13
2022-10-17T07:13:54.097Z,3.05
2022-10-17T07:16:23.610Z,2.95
2022-10-17T07:19:01.289Z,3.28
2022-10-17T07:21:38.164Z,2.90
2022-10-17T07:24:08.347Z,3.47
2022-10-17T07:26:36.281Z,3.55
2022-10-17T07:29:06.360Z,3.05
2022-10-17T07:31:49.863Z,3.45
2022-10-17T07:34:19.143Z,2.83
2022-10-17T07:36:46.954Z,3.08
2022-10-17T07:39:16.838Z,2.92
2022-10-17T07:41:47.536Z,3.45
2022-10-17T07:44:15.789Z,3.22
2022-10-17T07:46:48.435Z,3.40
2022-10-17T07:49:17.334Z,3.03
2022-10-17T07:54:19.178Z,3.47
2022-10-17T07:56:50.440Z,3.30
2022-10-17T07:59:18.920Z,3.03
2022-10-17T08:01:46.937Z,3.15
2022-10-17T08:04:16.718Z,3.28
2022-10-17T08:06:45.840Z,3.55
2022-10-17T08:09:13.708Z,3.53
2022-10-17T08:11:43.749Z,3.20
2022-10-17T08:14:11.998Z,3.17
2022-10-17T08:16:39.935Z,3.10
2022-10-17T08:21:41.613Z,3.47
2022-10-17T08:24:11.234Z,3.25
2022-10-17T08:26:42.363Z,3.53
2022-10-17T08:29:14.379Z,3.45
2022-10-17T08:31:46.457Z,3.10
2022-10-17T08:34:15.846Z,3.10
2022-10-17T08:36:43.686Z,2.90
2022-10-17T08:39:12.896Z,2.42
2022-10-17T08:41:49.164Z,3.13
2022-10-17T08:44:28.580Z,2.92
2022-10-17T08:46:58.962Z,3.03
2022-10-17T08:49:31.071Z,2.55
2022-10-17T08:52:03.658Z,2.70
2022-10-17T08:54:40.388Z,2.38
2022-10-17T08:57:12.411Z,2.50
2022-10-17T08:59:40.227Z,2.70
2022-10-17T09:02:22.565Z,2.63
2022-10-17T09:05:01.738Z,2.47
2022-10-17T09:07:35.208Z,2.40
2022-10-17T09:10:11.664Z,2.83
2022-10-17T09:12:42.772Z,2.63
2022-10-17T09:15:49.009Z,2.70
2022-10-17T09:18:21.205Z,2.75
2022-10-17T09:20:53.452Z,2.30
2022-10-17T09:23:23.550Z,2.50
2022-10-17T09:25:55.538Z,2.80
2022-10-17T09:28:27.145Z,2.13
2022-10-17T09:30:58.058Z,2.42
2022-10-17T09:33:35.280Z,2.92
2022-10-17T09:36:05.683Z,2.65
2022-10-17T09:38:39.423Z,2.70
2022-10-17T09:41:43.035Z,2.63
2022-10-17T09:44:15.560Z,2.45
2022-10-17T09:46:46.046Z,2.75
2022-10-17T09:49:17.258Z,2.50
2022-10-17T09:51:45.369Z,2.22
2022-10-17T09:54:19.299Z,2.55
2022-10-17T09:57:07.018Z,2.53
2022-10-17T09:59:36.757Z,2.50
2022-10-17T10:02:18.178Z,2.95
2022-10-17T10:05:16.237Z,2.50
2022-10-17T10:07:44.894Z,2.60
2022-10-17T10:10:26.236Z,2.50
2022-10-17T10:13:08.685Z,2.70
2022-10-17T10:15:40.935Z,2.90
2022-10-17T10:18:31.962Z,2.80
2022-10-17T10:21:06.977Z,2.53
2022-10-17T10:23:39.890Z,2.80
2022-10-17T10:26:21.091Z,2.58
2022-10-17T10:28:58.638Z,2.70
2022-10-17T10:31:35.612Z,2.60
2022-10-17T10:34:15.601Z,2.65
2022-10-17T10:36:50.710Z,2.60
2022-10-17T10:39:32.565Z,2.50
2022-10-17T10:42:01.257Z,2.00
2022-10-17T10:44:32.272Z,2.65
2022-10-17T10:47:15.761Z,2.72
2022-10-17T10:49:44.035Z,3.03
2022-10-17T10:52:17.012Z,2.70
2022-10-17T10:54:51.414Z,2.47
2022-10-17T10:57:22.538Z,2.97
2022-10-17T11:00:09.604Z,2.50
2022-10-17T11:02:41.326Z,2.50
2022-10-17T11:05:13.675Z,2.40
2022-10-17T11:07:44.850Z,2.83
2022-10-17T11:10:16.248Z,2.60
2022-10-17T11:12:47.442Z,2.60
2022-10-17T11:15:21.862Z,2.53
2022-10-17T11:17:57.901Z,3.10
2022-10-17T11:20:31.758Z,2.22
2022-10-17T11:23:06.115Z,2.60
2022-10-17T11:25:35.873Z,2.65
2022-10-17T11:28:05.287Z,2.75
2022-10-17T11:33:21.636Z,2.30
2022-10-17T11:35:51.165Z,2.38
2022-10-17T11:38:23.446Z,2.58
2022-10-17T11:40:53.041Z,3.08
2022-10-17T11:43:23.323Z,3.10
2022-10-17T11:45:56.407Z,2.85
2022-10-17T11:48:26.781Z,2.80
2022-10-17T11:53:49.495Z,2.60
2022-10-17T11:56:21.006Z,2.58
2022-10-17T11:58:53.713Z,2.60
2022-10-17T12:01:28.517Z,2.90
2022-10-17T12:04:08.650Z,2.10
2022-10-17T12:06:49.271Z,2.67
2022-10-17T12:09:24.158Z,3.05
2022-10-17T12:11:54.939Z,2.50
2022-10-17T12:14:41.468Z,2.80
2022-10-17T12:17:41.002Z,2.97
2022-10-17T12:20:31.573Z,2.75
2022-10-17T12:23:04.725Z,2.80
2022-10-17T12:25:34.235Z,2.88
2022-10-17T12:28:13.665Z,2.97
2022-10-17T12:30:52.364Z,2.80
2022-10-17T12:33:23.945Z,2.97
2022-10-17T12:35:52.900Z,2.65
2022-10-17T12:38:26.062Z,3.10
2022-10-17T12:41:07.536Z,2.60
2022-10-17T12:43:48.329Z,2.78
2022-10-17T12:46:55.331Z,3.03
2022-10-17T12:49:38.805Z,3.03
2022-10-17T12:52:29.525Z,2.53
2022-10-17T12:55:12.161Z,2.10
2022-10-17T12:57:55.476Z,3.17
2022-10-17T13:00:28.408Z,2.58
2022-10-17T13:02:58.177Z,2.65
2022-10-17T13:05:32.544Z,3.03
2022-10-17T13:08:02.165Z,2.85
2022-10-17T13:10:32.273Z,3.00
2022-10-17T13:13:07.352Z,2.53
2022-10-17T13:15:35.978Z,2.90
2022-10-17T13:18:03.700Z,3.15
2022-10-17T13:20:33.533Z,3.03
2022-10-17T13:23:01.380Z,2.53
2022-10-17T13:25:29.581Z,2.92
2022-10-17T13:28:12.120Z,2.90
2022-10-17T13:30:39.898Z,3.58
2022-10-17T13:33:22.557Z,2.78
2022-10-17T13:36:06.932Z,3.20
2022-10-17T13:38:36.786Z,3.33
2022-10-17T13:41:34.277Z,2.97
2022-10-17T13:44:02.690Z,3.30
2022-10-17T13:46:37.840Z,3.30
2022-10-17T13:49:17.227Z,2.83
2022-10-17T13:51:48.855Z,3.05
2022-10-17T13:54:30.425Z,2.97
2022-10-17T13:56:58.445Z,3.28
2022-10-17T13:59:31.272Z,2.92
2022-10-17T14:02:01.560Z,2.92
2022-10-17T14:04:39.996Z,3.00
2022-10-17T14:07:25.618Z,3.67
2022-10-17T14:09:53.396Z,2.67
2022-10-17T14:12:21.616Z,3.30
2022-10-17T14:15:09.872Z,3.40
2022-10-17T14:17:38.585Z,3.30
2022-10-17T14:20:40.698Z,3.15
2022-10-17T14:23:21.401Z,3.00
2022-10-17T14:25:45.989Z,2.70
2022-10-17T14:28:16.791Z,3.40
2022-10-17T14:31:01.156Z,2.88
2022-10-17T14:33:30.712Z,3.15
2022-10-17T14:36:00.167Z,10.05
2022-10-17T14:38:30.334Z,2.97
2022-10-17T14:41:23.298Z,3.40
2022-10-17T14:43:54.368Z,3.10
2022-10-17T14:46:22.267Z,3.38
2022-10-17T14:48:54.636Z,3.40
2022-10-17T14:51:22.409Z,3.10
2022-10-17T14:54:20.810Z,3.33
2022-10-17T14:56:51.707Z,3.80
2022-10-17T14:59:51.745Z,3.30
2022-10-17T15:02:10.237Z,3.20
2022-10-17T15:04:37.997Z,3.25
2022-10-17T15:07:06.082Z,3.00
2022-10-17T15:09:35.188Z,2.95
2022-10-17T15:12:03.517Z,3.00
2022-10-17T15:14:31.304Z,3.20
2022-10-17T15:16:59.048Z,2.88
2022-10-17T15:19:26.784Z,2.95
2022-10-17T15:21:54.529Z,3.30
2022-10-17T15:24:22.291Z,3.33
2022-10-17T15:26:51.460Z,3.53
2022-10-17T15:29:19.238Z,3.10
2022-10-17T15:31:47.004Z,3.10
2022-10-17T15:34:14.802Z,3.40
2022-10-17T15:36:43.886Z,3.33
2022-10-17T15:39:11.736Z,3.15
2022-10-17T15:41:39.541Z,3.38
2022-10-17T15:44:08.661Z,3.45
2022-10-17T15:46:36.684Z,3.30
2022-10-17T15:49:07.469Z,3.60
2022-10-17T15:51:35.473Z,3.45
2022-10-17T15:54:03.305Z,4.03
2022-10-17T15:56:35.787Z,3.75
2022-10-17T15:59:04.249Z,4.00
2022-10-17T16:01:34.617Z,4.10
2022-10-17T16:04:02.454Z,4.32
2022-10-17T16:06:30.418Z,4.07
2022-10-17T16:08:58.198Z,4.40
2022-10-17T16:11:29.773Z,4.63
2022-10-17T16:14:00.384Z,4.38
2022-10-17T16:16:29.915Z,4.88
2022-10-17T16:18:59.538Z,4.30
2022-10-17T16:24:02.657Z,4.15
2022-10-17T16:26:30.467Z,4.03
2022-10-17T16:29:02.560Z,4.38
2022-10-17T16:31:32.798Z,4.88
2022-10-17T16:34:03.398Z,5.35
2022-10-17T16:36:31.253Z,4.90
2022-10-17T16:38:59.227Z,5.40
2022-10-17T16:41:29.013Z,5.20
2022-10-17T16:43:59.108Z,5.70
2022-10-17T16:46:28.084Z,5.72
2022-10-17T16:48:56.104Z,6.10
2022-10-17T16:51:25.645Z,6.65
2022-10-17T16:53:54.452Z,6.50
2022-10-17T16:56:23.509Z,7.68
2022-10-17T16:58:51.827Z,8.00
2022-10-17T17:01:23.081Z,6.90
2022-10-17T17:03:51.426Z,7.03
2022-10-17T17:06:20.759Z,6.70
2022-10-17T17:08:49.908Z,6.75
2022-10-17T17:11:19.422Z,7.32
2022-10-17T17:13:47.777Z,6.15
2022-10-17T17:16:17.078Z,6.57
2022-10-17T17:18:45.996Z,8.70
2022-10-17T17:21:14.395Z,7.97
2022-10-17T17:23:43.343Z,7.93
2022-10-17T17:26:13.769Z,7.47
2022-10-17T17:28:42.324Z,8.10
2022-10-17T17:31:11.320Z,8.27
2022-10-17T17:33:40.236Z,8.90
2022-10-17T17:36:08.853Z,9.88
2022-10-17T17:38:37.301Z,8.20
2022-10-17T17:41:05.529Z,8.75
2022-10-17T17:43:34.879Z,9.18
2022-10-17T17:46:03.057Z,8.73
2022-10-17T17:48:30.865Z,8.05
2022-10-17T17:50:58.633Z,8.82
2022-10-17T17:53:26.397Z,8.70
2022-10-17T17:56:02.422Z,8.60
2022-10-17T17:58:30.178Z,8.35
2022-10-17T18:00:59.484Z,8.52
2022-10-17T18:03:27.658Z,9.43
2022-10-17T18:05:55.516Z,8.18
2022-10-17T18:08:23.293Z,8.05
2022-10-17T18:10:54.413Z,8.77
2022-10-17T18:13:22.155Z,8.63
2022-10-17T18:15:51.867Z,8.10
2022-10-17T18:18:21.034Z,7.85
2022-10-17T18:20:48.767Z,8.25
2022-10-17T18:23:17.766Z,8.02
2022-10-17T18:25:54.493Z,8.32
2022-10-17T18:28:22.307Z,8.88
2022-10-17T18:30:50.422Z,8.93
2022-10-17T18:33:18.222Z,8.93
2022-10-17T18:35:47.576Z,9.30
2022-10-17T18:38:15.317Z,8.45
2022-10-17T18:40:45.076Z,8.90
2022-10-17T18:43:15.037Z,8.70
2022-10-17T18:45:42.791Z,8.93
2022-10-17T18:48:10.498Z,9.07
2022-10-17T18:50:39.868Z,10.13
2022-10-17T18:53:09.016Z,8.70
2022-10-17T18:55:40.063Z,9.60
2022-10-17T18:58:07.911Z,8.50
2022-10-17T19:00:35.733Z,8.57
2022-10-17T19:03:04.153Z,8.93
2022-10-17T19:05:33.938Z,7.55
2022-10-17T19:08:01.757Z,8.13
2022-10-17T19:10:30.875Z,9.07
2022-10-17T19:12:58.685Z,9.15
2022-10-17T19:15:26.620Z,8.45
2022-10-17T19:17:54.382Z,8.65
2022-10-17T19:20:22.225Z,9.05
2022-10-17T19:22:50.061Z,8.80
2022-10-17T19:25:17.933Z,9.55
2022-10-17T19:27:47.102Z,7.93
2022-10-17T19:30:14.839Z,8.98
2022-10-17T19:32:42.578Z,7.80
2022-10-17T19:35:12.265Z,6.60
2022-10-17T19:37:39.972Z,6.95
2022-10-17T19:40:09.227Z,5.07
2022-10-17T19:42:37.000Z,5.53
2022-10-17T19:45:07.621Z,6.43
2022-10-17T19:47:35.400Z,5.93
2022-10-17T19:52:32.247Z,5.68
2022-10-17T19:55:00.237Z,5.78
2022-10-17T19:57:27.952Z,6.13
2022-10-17T19:59:56.208Z,6.45
2022-10-17T20:02:25.469Z,6.90
2022-10-17T20:05:00.242Z,6.50
2022-10-17T20:07:40.799Z,7.35
2022-10-17T20:10:09.238Z,7.63
2022-10-17T20:12:36.969Z,7.75
2022-10-17T20:15:06.005Z,7.50
2022-10-17T20:20:09.069Z,6.60
2022-10-17T20:22:36.849Z,6.13
2022-10-17T20:25:04.829Z,6.10
2022-10-17T20:27:32.579Z,5.22
2022-10-17T20:30:01.835Z,6.03
2022-10-17T20:32:31.588Z,4.97
2022-10-17T20:35:01.129Z,4.70
2022-10-17T20:37:29.078Z,5.32
2022-10-17T20:40:22.766Z,4.75
2022-10-17T20:42:44.676Z,4.88
2022-10-17T20:45:12.666Z,4.45
2022-10-17T20:47:47.050Z,5.30
2022-10-17T20:50:17.354Z,4.78
2022-10-17T20:52:45.134Z,4.72
2022-10-17T20:55:12.909Z,4.63
2022-10-17T20:57:40.733Z,4.75
2022-10-17T21:00:09.709Z,5.13
2022-10-17T21:02:37.478Z,5.63
2022-10-17T21:05:05.802Z,5.30
2022-10-17T21:07:34.937Z,5.47
2022-10-17T21:10:17.629Z,5.40
2022-10-17T21:12:54.298Z,4.50
2022-10-17T21:15:22.377Z,4.30
2022-10-17T21:17:50.121Z,4.70
2022-10-17T21:20:18.229Z,5.63
2022-10-17T21:22:47.388Z,4.78
2022-10-17T21:25:15.364Z,5.63
2022-10-17T21:27:43.146Z,5.70
2022-10-17T21:30:11.813Z,5.22
2022-10-17T21:32:55.048Z,6.05
2022-10-17T21:35:23.202Z,6.22
2022-10-17T21:37:52.296Z,5.15
2022-10-17T21:40:20.061Z,5.28
2022-10-17T21:42:47.824Z,5.55
2022-10-17T21:45:25.138Z,5.82
2022-10-17T21:48:12.193Z,5.53
2022-10-17T21:50:41.146Z,5.85
2022-10-17T21:53:10.649Z,5.57
2022-10-17T21:55:38.669Z,6.07
2022-10-17T21:58:06.405Z,5.85
2022-10-17T22:00:34.268Z,5.90
2022-10-17T22:03:02.134Z,5.50
2022-10-17T22:05:31.684Z,6.10
2022-10-17T22:07:59.821Z,6.78
2022-10-17T22:10:28.921Z,6.75
2022-10-17T22:12:56.693Z,7.00
2022-10-17T22:15:24.466Z,6.95
2022-10-17T22:17:52.224Z,6.50
2022-10-17T22:20:19.974Z,6.75
2022-10-17T22:22:47.845Z,6.88
2022-10-17T22:25:15.665Z,7.65
2022-10-17T22:27:44.809Z,6.38
2022-10-17T22:30:13.025Z,7.20
2022-10-17T22:32:40.786Z,6.97
2022-10-17T22:35:09.209Z,7.03
2022-10-17T22:37:37.004Z,6.70
2022-10-17T22:40:05.625Z,6.82
2022-10-17T22:42:34.616Z,5.97
2022-10-17T22:45:03.900Z,5.97
2022-10-17T22:47:32.554Z,6.10
2022-10-17T22:50:00.387Z,5.68
2022-10-17T22:52:28.292Z,5.05
2022-10-17T22:54:56.185Z,5.38
2022-10-17T22:57:23.935Z,4.95
2022-10-17T22:59:51.713Z,4.60
2022-10-17T23:02:20.893Z,4.13
2022-10-17T23:04:48.673Z,3.55
2022-10-17T23:07:16.449Z,4.07
2022-10-17T23:09:44.546Z,4.60
2022-10-17T23:12:12.298Z,4.25
2022-10-17T23:14:43.160Z,4.18
2022-10-17T23:17:11.452Z,3.45
2022-10-17T23:19:40.948Z,3.65
2022-10-17T23:22:09.650Z,3.72
2022-10-17T23:24:37.574Z,3.92
2022-10-17T23:27:05.389Z,3.70
2022-10-17T23:29:33.729Z,4.22
2022-10-17T23:32:01.970Z,4.07
2022-10-17T23:34:30.405Z,3.97
2022-10-17T23:36:59.762Z,4.45
2022-10-17T23:39:27.569Z,4.20
2022-10-17T23:41:55.352Z,4.10
2022-10-17T23:44:23.506Z,4.05
2022-10-17T23:46:51.320Z,4.07
2022-10-17T23:49:19.077Z,4.72
2022-10-17T23:51:46.910Z,4.25
2022-10-17T23:54:16.305Z,4.10
2022-10-17T23:56:44.050Z,4.38
2022-10-17T23:59:12.036Z,3.85
